Time;durP1;ratioP1;P1;durP2;ratioP2;P2;SDS_P1;SDS_P2;PMS_P1;PMS_P2;Temp;Humidity;BMP_temperature;BMP_pressure;BME280_temperature;BME280_humidity;BME280_pressure;Samples;Min_cycle;Max_cycle;Signal;HPM_P1;HPM_P2
2023/10/11 00:02:55;;;;;;;0.07;0.07;;;;;;;21.68;62.69;100118.78;5038523;28;20214;-85
2023/10/11 00:05:21;;;;;;;0.00;0.00;;;;;;;21.24;63.35;100105.13;5038265;28;20179;-86
2023/10/11 00:07:47;;;;;;;0.00;0.00;;;;;;;21.42;63.61;100119.16;5038698;28;20198;-85
2023/10/11 00:10:19;;;;;;;0.00;0.00;;;;;;;21.43;63.57;100121.53;5038306;28;20176;-86
2023/10/11 00:12:44;;;;;;;2.37;0.40;;;;;;;21.32;63.65;100112.34;5039642;28;20192;-85
2023/10/11 00:15:10;;;;;;;0.20;0.20;;;;;;;21.17;63.50;100103.16;5042529;28;20171;-86
2023/10/11 00:17:39;;;;;;;0.67;0.43;;;;;;;21.37;63.33;100103.63;5042456;28;20176;-85
2023/10/11 00:20:19;;;;;;;0.60;0.60;;;;;;;21.44;63.10;100108.44;5045271;28;20175;-85
2023/10/11 00:22:45;;;;;;;0.00;0.00;;;;;;;21.37;62.83;100103.63;5044147;28;20207;-86
2023/10/11 00:25:12;;;;;;;0.33;0.33;;;;;;;21.29;62.82;100093.69;5043984;28;20255;-86
2023/10/11 00:27:37;;;;;;;0.27;0.13;;;;;;;21.53;62.51;100098.50;5042972;28;20266;-85
2023/10/11 00:30:03;;;;;;;1.03;0.77;;;;;;;21.48;62.61;100085.00;5041690;28;20181;-86
2023/10/11 00:32:29;;;;;;;0.17;0.17;;;;;;;21.57;62.63;100090.19;5044161;28;20257;-86
2023/10/11 00:34:54;;;;;;;0.10;0.10;;;;;;;21.46;62.51;100083.81;5041726;28;20180;-86
2023/10/11 00:37:20;;;;;;;0.00;0.00;;;;;;;21.34;62.93;100085.75;5043233;28;20234;-85
2023/10/11 00:39:45;;;;;;;0.00;0.00;;;;;;;21.40;63.03;100080.59;5043312;28;20183;-85
2023/10/11 00:42:11;;;;;;;0.10;0.10;;;;;;;21.32;62.95;100067.91;5040696;28;20199;-85
2023/10/11 00:44:36;;;;;;;0.00;0.00;;;;;;;21.26;63.35;100073.03;5041696;28;20194;-85
2023/10/11 00:47:06;;;;;;;0.00;0.00;;;;;;;21.01;63.53;100067.38;5040981;28;20687;-85
2023/10/11 00:49:36;;;;;;;0.00;0.00;;;;;;;21.30;63.27;100073.06;5042672;28;20187;-85
2023/10/11 00:52:06;;;;;;;0.20;0.20;;;;;;;21.24;63.54;100061.47;5040839;28;20194;-86
2023/10/11 00:54:33;;;;;;;0.20;0.20;;;;;;;20.94;64.82;100072.09;5041857;28;20580;-86
2023/10/11 00:57:00;;;;;;;0.03;0.03;;;;;;;20.62;65.64;100056.09;5041610;28;20184;-86
2023/10/11 00:59:28;;;;;;;0.20;0.20;;;;;;;20.92;65.12;100055.03;5042740;28;20179;-86
2023/10/11 01:01:55;;;;;;;0.00;0.00;;;;;;;20.59;65.01;100037.44;5034071;28;20270;-85
2023/10/11 01:04:22;;;;;;;0.00;0.00;;;;;;;21.06;64.08;100055.06;5041289;28;20171;-86
2023/10/11 01:06:50;;;;;;;0.00;0.00;;;;;;;20.93;64.36;100042.72;5041722;28;20202;-87
2023/10/11 01:09:17;;;;;;;0.63;0.37;;;;;;;20.67;64.58;100025.16;5040987;28;20282;-86
2023/10/11 01:11:42;;;;;;;0.00;0.00;;;;;;;20.59;65.03;100031.88;5041039;28;20179;-85
2023/10/11 01:14:11;;;;;;;0.00;0.00;;;;;;;20.72;65.55;100035.13;5042230;28;20191;-85
2023/10/11 01:16:37;;;;;;;0.00;0.00;;;;;;;20.59;66.32;100037.44;5041113;28;20278;-86
2023/10/11 01:19:08;;;;;;;0.27;0.27;;;;;;;20.03;66.27;100010.91;5041922;28;20203;-85
2023/10/11 01:21:34;;;;;;;0.50;0.40;;;;;;;20.18;66.94;100037.56;5041511;28;20210;-86
2023/10/11 01:23:59;;;;;;;1.80;1.70;;;;;;;20.59;64.67;100042.19;5040883;28;20200;-85
2023/10/11 01:26:27;;;;;;;0.00;0.00;;;;;;;20.83;63.92;100030.41;5042119;28;20541;-86
2023/10/11 01:28:56;;;;;;;4.57;0.70;;;;;;;20.94;63.77;100038.75;5042172;28;20176;-85
2023/10/11 01:31:21;;;;;;;0.23;0.23;;;;;;;21.11;61.78;100038.03;5041554;28;20179;-84
2023/10/11 01:33:52;;;;;;;0.27;0.27;;;;;;;21.17;61.74;100036.47;5039221;28;20299;-84
2023/10/11 01:36:21;;;;;;;1.43;1.33;;;;;;;21.01;62.02;100022.94;5040939;28;20179;-85
2023/10/11 01:38:47;;;;;;;0.00;0.00;;;;;;;21.03;60.99;100003.88;5039967;28;20245;-86
2023/10/11 01:41:19;;;;;;;0.13;0.13;;;;;;;21.21;60.83;100011.47;5040387;28;20191;-85
2023/10/11 01:43:46;;;;;;;0.10;0.10;;;;;;;21.46;60.06;100036.56;5042396;28;20208;-85
2023/10/11 01:46:18;;;;;;;4.73;0.57;;;;;;;21.03;60.51;100001.09;5041295;28;20322;-85
2023/10/11 01:48:46;;;;;;;0.00;0.00;;;;;;;21.48;59.41;100020.28;5041374;28;20184;-84
2023/10/11 01:51:16;;;;;;;0.77;0.77;;;;;;;21.11;59.99;100010.25;5041713;28;20179;-86
2023/10/11 01:53:43;;;;;;;0.00;0.00;;;;;;;21.68;58.54;100043.72;5039938;28;20200;-85
2023/10/11 01:56:08;;;;;;;0.13;0.13;;;;;;;21.32;59.16;100006.75;5041474;28;20180;-85
2023/10/11 01:58:37;;;;;;;0.00;0.00;;;;;;;22.01;57.70;100038.97;5041016;28;20210;-86
2023/10/11 02:01:03;;;;;;;0.00;0.00;;;;;;;21.92;57.43;100028.22;5040710;28;20191;-85
2023/10/11 02:03:29;;;;;;;0.73;0.63;;;;;;;21.87;57.36;100021.09;5041594;28;20199;-85
2023/10/11 02:05:54;;;;;;;0.00;0.00;;;;;;;22.07;56.87;100021.47;5043510;28;20172;-85
2023/10/11 02:08:19;;;;;;;0.77;0.53;;;;;;;21.90;57.64;100020.28;5043640;28;20192;-87
2023/10/11 02:10:45;;;;;;;0.00;0.00;;;;;;;21.94;56.67;100004.38;5043538;28;20187;-86
2023/10/11 02:13:13;;;;;;;0.00;0.00;;;;;;;21.80;57.82;100026.63;5041934;28;20196;-84
2023/10/11 02:15:40;;;;;;;0.50;0.50;;;;;;;21.73;57.89;99998.03;5041624;28;20183;-85
2023/10/11 02:18:10;;;;;;;0.10;0.10;;;;;;;21.38;58.80;100005.16;5044423;28;20338;-85
2023/10/11 02:20:43;;;;;;;6.33;1.03;;;;;;;20.85;59.67;99982.81;5043811;28;20191;-84
2023/10/11 02:23:08;;;;;;;0.00;0.00;;;;;;;21.32;59.71;100013.09;5041916;28;20223;-85
2023/10/11 02:25:34;;;;;;;0.00;0.00;;;;;;;21.43;59.27;100012.34;5041490;28;20199;-85
2023/10/11 02:27:59;;;;;;;0.00;0.00;;;;;;;21.33;60.42;100020.25;5040591;28;20185;-85
2023/10/11 02:30:25;;;;;;;8.10;1.13;;;;;;;21.54;60.22;100035.34;5041375;28;20206;-86
2023/10/11 02:32:58;;;;;;;0.00;0.00;;;;;;;21.31;60.40;100022.63;5039700;28;20204;-85
2023/10/11 02:35:27;;;;;;;0.00;0.00;;;;;;;21.14;59.23;99995.59;5041798;28;20210;-85
2023/10/11 02:37:55;;;;;;;0.00;0.00;;;;;;;21.17;59.29;100017.00;5040279;28;20180;-85
2023/10/11 02:40:23;;;;;;;0.00;0.00;;;;;;;21.65;58.35;100028.63;5042216;28;20176;-85
2023/10/11 02:42:55;;;;;;;0.03;0.03;;;;;;;21.43;59.28;100017.91;5040931;28;20216;-87
2023/10/11 02:45:23;;;;;;;0.00;0.00;;;;;;;21.86;58.45;100035.38;5039729;28;20179;-86
2023/10/11 02:47:50;;;;;;;0.00;0.00;;;;;;;21.15;59.33;100001.94;5040148;28;20188;-85
2023/10/11 02:50:16;;;;;;;0.10;0.10;;;;;;;21.60;57.75;100019.88;5039683;28;20200;-85
2023/10/11 02:52:44;;;;;;;0.00;0.00;;;;;;;21.60;58.20;100017.09;5041187;28;20200;-85
2023/10/11 02:57:44;;;;;;;0.00;0.00;;;;;;;21.90;57.61;100022.28;5040917;28;20218;-85
2023/10/11 03:00:22;;;;;;;0.47;0.30;;;;;;;21.10;58.66;99994.75;5039962;28;20191;-85
2023/10/11 03:02:54;;;;;;;0.00;0.00;;;;;;;21.44;58.79;100003.59;5039241;28;20253;-86
2023/10/11 03:05:25;;;;;;;0.00;0.00;;;;;;;21.36;59.07;100002.78;5040903;28;20279;-85
2023/10/11 03:07:51;;;;;;;0.00;0.00;;;;;;;21.63;57.99;100007.97;5041584;28;20206;-85
2023/10/11 03:10:18;;;;;;;0.00;0.00;;;;;;;21.66;58.97;100018.28;5041157;28;20188;-85
2023/10/11 03:12:44;;;;;;;0.00;0.00;;;;;;;21.46;58.66;100001.22;5041167;28;20693;-85
2023/10/11 03:15:11;;;;;;;2.00;0.80;;;;;;;21.61;58.40;100013.13;5040347;28;20200;-85
2023/10/11 03:17:41;;;;;;;0.10;0.10;;;;;;;21.43;60.06;100017.91;5041477;28;20176;-84
2023/10/11 03:20:08;;;;;;;0.00;0.00;;;;;;;21.68;59.13;100016.69;5040873;28;20187;-86
2023/10/11 03:22:37;;;;;;;0.47;0.30;;;;;;;20.90;61.14;99999.09;5040873;28;20212;-85
2023/10/11 03:25:13;;;;;;;1.83;1.73;;;;;;;21.20;60.03;99998.75;5042623;28;20764;-86
2023/10/11 03:27:48;;;;;;;0.00;0.00;;;;;;;21.53;58.85;100006.75;5043096;28;20274;-87
2023/10/11 03:30:16;;;;;;;0.00;0.00;;;;;;;21.78;58.31;100012.34;5044177;28;20229;-87
2023/10/11 03:32:44;;;;;;;0.00;0.00;;;;;;;21.87;58.34;100003.59;5044072;28;20716;-86
2023/10/11 03:35:10;;;;;;;1.40;0.83;;;;;;;21.49;57.65;99977.38;5044718;28;20184;-86
2023/10/11 03:37:37;;;;;;;0.10;0.10;;;;;;;22.02;57.32;99996.81;5043255;28;20218;-85
2023/10/11 03:40:13;;;;;;;0.00;0.00;;;;;;;21.98;57.52;99976.53;5044847;28;20172;-86
2023/10/11 03:42:59;;;;;;;0.00;0.00;;;;;;;22.09;57.86;100004.38;5041817;28;20237;-86
2023/10/11 03:45:27;;;;;;;0.00;0.00;;;;;;;22.26;58.53;100004.34;5043335;28;20619;-85
2023/10/11 03:47:58;;;;;;;0.00;0.00;;;;;;;21.77;59.57;99974.59;5041706;28;20180;-85
2023/10/11 03:50:34;;;;;;;0.00;0.00;;;;;;;20.95;62.33;99968.94;5043983;28;20176;-87
2023/10/11 03:53:06;;;;;;;0.00;0.00;;;;;;;21.22;60.89;99965.81;5034834;28;20213;-85
2023/10/11 03:55:32;;;;;;;0.00;0.00;;;;;;;21.36;61.55;99977.75;5042732;28;20176;-86
2023/10/11 03:57:57;;;;;;;1.50;1.30;;;;;;;21.57;60.50;99965.88;5043606;28;20194;-87
2023/10/11 04:02:55;;;;;;;0.00;0.00;;;;;;;21.16;60.93;99953.50;5044312;28;20207;-87
2023/10/11 04:05:21;;;;;;;0.20;0.20;;;;;;;21.68;60.39;99965.84;5042584;28;20210;-85
2023/10/11 04:07:46;;;;;;;0.00;0.00;;;;;;;21.75;59.92;99965.06;5043396;28;20188;-85
2023/10/11 04:10:19;;;;;;;0.27;0.27;;;;;;;22.13;59.31;99988.47;5041958;28;20175;-86
2023/10/11 04:12:45;;;;;;;0.37;0.37;;;;;;;21.84;59.34;99963.44;5041747;28;20207;-85
2023/10/11 04:15:24;;;;;;;0.00;0.00;;;;;;;21.43;59.84;99954.75;5042813;28;20252;-86
2023/10/11 04:17:49;;;;;;;0.00;0.00;;;;;;;21.61;59.58;99966.66;5042329;28;20214;-85
2023/10/11 04:20:18;;;;;;;0.00;0.00;;;;;;;21.25;61.39;99946.38;5043969;28;20184;-85
2023/10/11 04:23:01;;;;;;;0.00;0.00;;;;;;;21.42;61.15;99967.06;5041673;28;20333;-85
2023/10/11 04:25:26;;;;;;;0.10;0.10;;;;;;;21.36;61.35;99960.28;5043406;28;20183;-85
2023/10/11 04:27:55;;;;;;;0.00;0.00;;;;;;;21.17;61.33;99933.66;5043910;28;20234;-86
2023/10/11 04:30:26;;;;;;;0.00;0.00;;;;;;;21.74;60.42;99972.63;5042550;28;20194;-87
2023/10/11 04:32:56;;;;;;;1.50;1.40;;;;;;;22.08;58.98;99980.53;5044060;28;20188;-86
2023/10/11 04:35:22;;;;;;;0.00;0.00;;;;;;;22.10;59.13;99978.16;5042994;28;20298;-87
2023/10/11 04:37:54;;;;;;;0.00;0.00;;;;;;;21.47;60.08;99955.53;5043670;28;20195;-86
2023/10/11 04:43:24;;;;;;;0.00;0.00;;;;;;;21.55;60.51;99956.31;5036505;28;20215;-87
2023/10/11 04:45:53;;;;;;;1.90;1.17;;;;;;;21.07;61.47;99960.22;5043907;28;20194;-86
2023/10/11 04:48:36;;;;;;;0.00;0.00;;;;;;;21.25;61.24;99959.50;5045229;28;20179;-86
2023/10/11 04:51:23;;;;;;;2.83;0.80;;;;;;;21.64;60.69;99965.84;5043953;28;20180;-86
2023/10/11 04:53:56;;;;;;;0.30;0.30;;;;;;;21.50;60.34;99943.63;5039645;28;20277;-85
2023/10/11 04:59:36;;;;;;;0.00;0.00;;;;;;;21.92;59.64;99964.25;5034716;28;20194;-84
2023/10/11 05:04:54;;;;;;;0.00;0.00;;;;;;;21.63;59.44;99938.47;5044604;28;20203;-88
2023/10/11 05:07:21;;;;;;;0.00;0.00;;;;;;;21.89;58.93;99951.94;5051409;28;20191;-88
2023/10/11 05:10:43;;;;;;;0.00;0.00;;;;;;;21.94;58.92;99953.50;5057705;28;20929;-88
2023/10/11 05:12:41;;;;;;;0.00;0.00;;;;;;;21.81;58.45;99941.22;5054036;28;20215;-86
2023/10/11 05:15:07;;;;;;;0.00;0.00;;;;;;;21.78;58.95;99942.00;5057794;28;20180;-86
2023/10/11 05:17:38;;;;;;;0.20;0.20;;;;;;;22.30;57.78;99954.25;5054571;28;20188;-86
2023/10/11 05:22:48;;;;;;;0.00;0.00;;;;;;;22.20;57.98;99947.50;5043006;28;20200;-86
2023/10/11 05:27:56;;;;;;;0.10;0.10;;;;;;;22.14;57.68;99938.00;5043209;28;20183;-86
2023/10/11 05:35:24;;;;;;;0.80;0.80;;;;;;;22.34;57.65;99937.53;5041519;28;20202;-86
2023/10/11 05:51:32;;;;;;;3.10;1.83;;;;;;;21.82;58.63;99918.56;5041562;28;20386;-85
2023/10/11 05:53:59;;;;;;;0.00;0.00;;;;;;;22.27;57.64;99944.69;5040838;28;20192;-86
2023/10/11 05:56:25;;;;;;;0.47;0.47;;;;;;;21.71;58.13;99901.13;5038282;28;20176;-85
2023/10/11 05:58:53;;;;;;;0.80;0.80;;;;;;;21.86;58.15;99897.13;5038133;28;20650;-86
2023/10/11 06:01:22;;;;;;;0.83;0.83;;;;;;;21.97;57.77;99902.63;5038338;28;20183;-86
2023/10/11 06:03:51;;;;;;;0.60;0.60;;;;;;;21.92;57.71;99906.63;5041737;28;20250;-87
2023/10/11 06:06:31;;;;;;;0.10;0.10;;;;;;;22.02;58.01;99899.44;5038551;28;20236;-86
2023/10/11 06:08:58;;;;;;;1.17;1.13;;;;;;;22.24;57.79;99928.81;5034466;28;20175;-87
2023/10/11 06:11:29;;;;;;;0.00;0.00;;;;;;;22.14;58.13;99918.53;5043003;28;20184;-85
2023/10/11 06:13:55;;;;;;;1.10;0.67;;;;;;;22.00;56.79;99899.06;5044849;28;20202;-84
2023/10/11 06:16:22;;;;;;;0.00;0.00;;;;;;;22.34;57.06;99924.41;5041850;28;20180;-83
2023/10/11 06:18:58;;;;;;;1.17;1.03;;;;;;;22.27;57.13;99904.94;5042372;28;20176;-85
2023/10/11 06:21:30;;;;;;;0.90;0.90;;;;;;;21.79;57.92;99894.34;5040884;28;20199;-86
2023/10/11 06:23:59;;;;;;;0.00;0.00;;;;;;;21.55;58.46;99878.47;5033541;28;20214;-85
2023/10/11 06:26:28;;;;;;;1.63;1.53;;;;;;;21.57;59.01;99890.81;5043397;28;20183;-85
2023/10/11 06:29:03;;;;;;;1.70;1.13;;;;;;;21.54;58.71;99886.03;5032734;28;20251;-85
2023/10/11 06:31:39;;;;;;;3.00;2.80;;;;;;;21.70;58.69;99899.53;5042456;28;20297;-83
2023/10/11 06:34:15;;;;;;;6.60;1.37;;;;;;;21.43;59.39;99888.03;5040490;28;20196;-85
2023/10/11 06:36:42;;;;;;;1.43;1.33;;;;;;;21.37;59.24;99884.84;5040599;28;20190;-85
2023/10/11 06:39:33;;;;;;;0.97;0.33;;;;;;;21.42;59.32;99896.78;5040785;28;20191;-85
2023/10/11 06:41:53;;;;;;;0.40;0.40;;;;;;;;;;5035283;28;20183;-87
2023/10/11 06:44:18;;;;;;;0.10;0.10;;;;;;;21.38;59.65;99880.09;5041474;28;20212;-86
2023/10/11 06:46:47;;;;;;;0.00;0.00;;;;;;;21.51;60.10;99899.94;5041602;28;20203;-85
2023/10/11 06:49:14;;;;;;;0.60;0.60;;;;;;;21.65;59.52;99909.06;5043448;28;20214;-86
2023/10/11 06:51:41;;;;;;;7.90;1.40;;;;;;;;;;5040940;28;20195;-85
2023/10/11 06:54:07;;;;;;;1.23;0.77;;;;;;;21.67;59.15;99901.09;5039371;28;20199;-85
2023/10/11 06:56:32;;;;;;;3.73;2.10;;;;;;;21.68;59.09;99897.13;5040455;28;20561;-86
2023/10/11 06:59:00;;;;;;;0.70;0.70;;;;;;;21.66;58.71;99893.16;5042011;28;20195;-85
2023/10/11 07:01:30;;;;;;;0.77;0.77;;;;;;;22.06;58.71;99921.72;5039260;28;20188;-87
2023/10/11 07:03:57;;;;;;;2.90;2.10;;;;;;;21.88;58.40;99896.72;5039256;28;20226;-85
2023/10/11 07:06:22;;;;;;;0.40;0.40;;;;;;;22.17;58.08;99914.94;5039363;28;20279;-86
2023/10/11 07:08:52;;;;;;;1.17;0.30;;;;;;;21.83;58.21;99883.19;5038951;28;20720;-86
2023/10/11 07:11:50;;;;;;;1.60;0.87;;;;;;;22.13;58.34;99905.00;5037824;28;20536;-86
2023/10/11 07:14:15;;;;;;;0.30;0.30;;;;;;;22.08;58.23;99911.78;5037388;28;20612;-86
2023/10/11 07:16:44;;;;;;;5.33;1.63;;;;;;;21.93;58.70;99885.16;5039665;28;20180;-85
2023/10/11 07:19:11;;;;;;;3.97;1.13;;;;;;;21.86;58.64;99890.75;5037327;28;20180;-86
2023/10/11 07:26:56;;;;;;;19.73;1.60;;;;;;;21.43;59.24;99865.81;5038387;28;20194;-86
2023/10/11 07:29:22;;;;;;;0.00;0.00;;;;;;;21.41;59.22;99870.16;5037833;28;20184;-86
2023/10/11 07:31:50;;;;;;;0.70;0.70;;;;;;;21.60;58.99;99884.44;5045446;28;20800;-84
2023/10/11 07:34:25;;;;;;;1.50;1.40;;;;;;;21.56;58.86;99888.44;5036168;28;20211;-87
2023/10/11 07:36:50;;;;;;;3.60;0.83;;;;;;;21.82;58.11;99889.94;5038933;28;20243;-87
2023/10/11 07:39:25;;;;;;;2.53;2.27;;;;;;;21.83;58.14;99888.75;5038916;28;20219;-86
2023/10/11 07:42:00;;;;;;;0.00;0.00;;;;;;;22.19;57.33;99920.09;5040147;28;20199;-87
2023/10/11 07:44:27;;;;;;;1.87;1.50;;;;;;;21.90;57.33;99883.19;5040630;28;20195;-86
2023/10/11 07:46:55;;;;;;;0.10;0.10;;;;;;;22.07;57.32;99910.19;5040121;28;20191;-85
2023/10/11 07:49:23;;;;;;;0.00;0.00;;;;;;;22.44;57.19;99928.34;5042968;28;20184;-86
2023/10/11 07:51:53;;;;;;;0.10;0.10;;;;;;;22.40;57.44;99933.91;5040710;28;20660;-87
2023/10/11 07:54:21;;;;;;;1.53;1.43;;;;;;;22.16;56.15;99887.50;5037066;28;20199;-87
2023/10/11 07:56:57;;;;;;;0.00;0.00;;;;;;;22.34;55.83;99893.78;5042068;28;20180;-87
2023/10/11 07:59:26;;;;;;;0.00;0.00;;;;;;;22.36;56.44;99913.66;5043776;28;20270;-88
2023/10/11 08:01:54;;;;;;;0.10;0.10;;;;;;;22.70;56.17;99927.00;5040775;28;20184;-84
2023/10/11 08:04:22;;;;;;;0.70;0.70;;;;;;;22.75;55.47;99921.03;5036208;28;20212;-85
2023/10/11 08:06:59;;;;;;;1.80;1.50;;;;;;;22.62;55.01;99903.19;5035842;28;20184;-86
2023/10/11 08:09:25;;;;;;;0.53;0.53;;;;;;;23.00;55.38;99930.06;5037419;28;20229;-85
2023/10/11 08:11:56;;;;;;;0.00;0.00;;;;;;;23.23;54.50;99937.06;5036656;28;20186;-85
2023/10/11 08:14:28;;;;;;;1.07;0.87;;;;;;;22.96;54.22;99914.56;5037046;28;20229;-86
2023/10/11 08:16:59;;;;;;;0.63;0.63;;;;;;;23.02;53.86;99910.94;5035359;28;20218;-87
2023/10/11 08:19:24;;;;;;;6.63;2.13;;;;;;;22.89;54.23;99907.03;5034903;28;20199;-87
2023/10/11 08:21:57;;;;;;;4.43;2.30;;;;;;;23.23;54.60;99923.13;5037011;28;20183;-86
2023/10/11 08:24:25;;;;;;;8.10;1.40;;;;;;;23.21;54.10;99914.38;5035985;28;20227;-85
2023/10/11 08:26:52;;;;;;;0.00;0.00;;;;;;;23.05;54.52;99904.53;5038614;28;20206;-86
2023/10/11 08:29:29;;;;;;;2.23;1.03;;;;;;;22.83;54.95;99875.22;5038787;28;20187;-85
2023/10/11 08:31:59;;;;;;;1.37;1.37;;;;;;;23.17;54.03;99891.31;5037724;28;20282;-84
2023/10/11 08:34:28;;;;;;;1.13;1.03;;;;;;;23.51;53.87;99900.56;5039277;28;20187;-87
2023/10/11 08:36:56;;;;;;;3.23;1.63;;;;;;;23.28;53.91;99884.44;5043801;28;20605;-87
2023/10/11 08:39:35;;;;;;;2.33;1.70;;;;;;;23.43;53.73;99890.69;5041140;28;20188;-85
2023/10/11 08:42:17;;;;;;;1.03;1.03;;;;;;;23.39;53.35;99885.13;5033823;28;20254;-86
2023/10/11 08:44:45;;;;;;;0.00;0.00;;;;;;;23.82;52.77;99906.28;5041609;28;20234;-86
2023/10/11 08:47:16;;;;;;;1.63;1.53;;;;;;;23.75;52.81;99907.16;5040792;28;20835;-86
2023/10/11 08:49:48;;;;;;;2.47;2.27;;;;;;;23.77;52.95;99906.75;5043792;28;20195;-85
2023/10/11 08:52:18;;;;;;;1.30;1.23;;;;;;;23.60;53.40;99905.72;5041159;28;20183;-87
2023/10/11 08:54:44;;;;;;;2.73;2.03;;;;;;;23.80;53.19;99909.50;5041195;28;20234;-84
2023/10/11 08:57:13;;;;;;;2.10;1.83;;;;;;;23.45;53.00;99868.78;5043681;28;20176;-86
2023/10/11 08:59:49;;;;;;;1.40;1.30;;;;;;;23.62;53.25;99908.88;5042421;28;20184;-85
2023/10/11 09:02:17;;;;;;;0.30;0.30;;;;;;;23.72;53.32;99914.38;5041746;28;20215;-87
2023/10/11 09:05:06;;;;;;;0.53;0.50;;;;;;;23.81;52.85;99894.34;5042654;28;20176;-86
2023/10/11 09:07:45;;;;;;;2.67;1.90;;;;;;;23.64;52.95;99887.72;5040394;28;20227;-85
2023/10/11 09:10:24;;;;;;;1.10;1.00;;;;;;;23.81;52.90;99910.28;5044341;28;20187;-87
2023/10/11 09:12:56;;;;;;;0.97;0.97;;;;;;;23.77;53.36;99885.22;5044693;28;20200;-87
2023/10/11 09:15:21;;;;;;;0.70;0.70;;;;;;;23.67;53.26;99895.28;5042668;28;20194;-85
2023/10/11 09:17:50;;;;;;;5.10;2.20;;;;;;;23.29;53.90;99872.09;5038639;28;20185;-84
2023/10/11 09:20:23;;;;;;;3.23;2.33;;;;;;;23.32;53.69;99878.84;5040217;28;20180;-85
2023/10/11 09:22:52;;;;;;;2.60;1.80;;;;;;;23.59;53.40;99895.78;5039355;28;20211;-86
2023/10/11 09:25:22;;;;;;;5.03;2.00;;;;;;;23.49;53.43;99882.69;5038793;28;20668;-86
2023/10/11 09:27:48;;;;;;;5.40;2.87;;;;;;;23.57;53.02;99887.78;5038701;28;20210;-84
2023/10/11 09:30:20;;;;;;;3.30;1.93;;;;;;;23.76;52.88;99886.41;5041504;28;20313;-86
2023/10/11 09:32:51;;;;;;;10.77;1.40;;;;;;;23.93;52.73;99884.66;5039667;28;20204;-86
2023/10/11 09:35:26;;;;;;;2.80;1.93;;;;;;;23.94;52.61;99891.81;5038077;28;20198;-86
2023/10/11 09:37:54;;;;;;;7.63;2.53;;;;;;;24.09;53.10;99904.38;5037870;28;20536;-85
2023/10/11 09:40:26;;;;;;;1.17;1.10;;;;;;;24.28;52.59;99897.38;5037855;28;20310;-85
2023/10/11 09:42:56;;;;;;;1.03;1.03;;;;;;;24.16;52.55;99884.78;5036602;28;20627;-86
2023/10/11 09:45:28;;;;;;;2.77;0.87;;;;;;;24.19;52.54;99894.31;5036663;28;20179;-84
2023/10/11 09:47:54;;;;;;;1.57;0.93;;;;;;;24.17;52.58;99877.97;5040502;28;20230;-86
2023/10/11 09:50:22;;;;;;;4.50;1.17;;;;;;;24.31;52.83;99899.38;5038974;28;20637;-85
2023/10/11 09:52:51;;;;;;;2.30;2.10;;;;;;;23.87;52.94;99873.16;5037204;28;20204;-85
2023/10/11 09:55:30;;;;;;;4.83;1.07;;;;;;;23.80;53.10;99866.84;5038467;28;20235;-85
2023/10/11 09:58:18;;;;;;;3.43;2.07;;;;;;;24.13;53.35;99882.78;5029407;28;20184;-85
2023/10/11 10:00:54;;;;;;;4.20;2.33;;;;;;;24.14;53.32;99880.78;5036613;28;20191;-84
2023/10/11 10:03:24;;;;;;;4.97;2.03;;;;;;;23.79;53.78;99856.91;5035979;28;20288;-85
2023/10/11 10:06:07;;;;;;;2.57;1.97;;;;;;;23.84;53.56;99868.38;5035614;28;20188;-85
2023/10/11 10:08:33;;;;;;;4.43;2.80;;;;;;;23.66;53.76;99849.06;5036014;28;20187;-85
2023/10/11 10:11:19;;;;;;;3.60;1.47;;;;;;;23.89;53.91;99873.53;5045148;28;20346;-87
2023/10/11 10:14:23;;;;;;;10.70;2.63;;;;;;;23.85;54.20;99867.19;5040104;28;20207;-86
2023/10/11 10:17:10;;;;;;;2.57;2.37;;;;;;;24.18;54.06;99890.72;5041465;28;20267;-86
2023/10/11 10:19:39;;;;;;;1.87;1.10;;;;;;;24.09;53.49;99876.47;5040595;28;20195;-84
2023/10/11 10:22:15;;;;;;;3.23;1.77;;;;;;;24.27;54.21;99893.78;5035017;28;20260;-86
2023/10/11 10:24:41;;;;;;;3.50;1.37;;;;;;;24.35;53.49;99888.16;5040778;28;20661;-86
2023/10/11 10:27:33;;;;;;;2.47;1.63;;;;;;;24.81;53.52;99891.09;5042361;28;20188;-87
2023/10/11 10:29:59;;;;;;;1.00;1.00;;;;;;;24.70;53.36;99882.06;5033019;28;20177;-86
2023/10/11 10:32:28;;;;;;;0.47;0.47;;;;;;;25.27;52.89;99923.16;5041453;28;20682;-87
2023/10/11 10:35:18;;;;;;;1.97;1.77;;;;;;;25.26;53.21;99916.00;5040073;28;20650;-86
2023/10/11 10:37:46;;;;;;;1.83;1.63;;;;;;;25.27;52.70;99911.97;5042087;28;20173;-86
2023/10/11 10:40:24;;;;;;;7.03;2.30;;;;;;;25.16;53.14;99914.16;5041391;28;20201;-86
2023/10/11 10:43:19;;;;;;;9.37;2.43;;;;;;;25.20;53.61;99926.09;5037312;28;20204;-85
2023/10/11 10:45:52;;;;;;;6.40;2.43;;;;;;;24.92;53.65;99911.31;5037241;28;20181;-87
2023/10/11 10:48:25;;;;;;;5.73;1.60;;;;;;;25.22;53.27;99918.06;5037755;28;20299;-87
2023/10/11 10:51:04;;;;;;;1.80;1.30;;;;;;;25.22;52.58;99918.06;5035539;28;20173;-87
2023/10/11 10:53:42;;;;;;;3.77;2.13;;;;;;;-144.99;100.00;67352.69;5035587;28;20203;-86
2023/10/11 10:56:22;;;;;;;2.20;1.73;;;;;;;-144.99;100.00;67352.69;5035608;28;20207;-88
2023/10/11 10:58:47;;;;;;;6.73;2.47;;;;;;;-144.99;100.00;67352.69;5037974;28;20175;-87
2023/10/11 11:01:12;;;;;;;2.10;1.90;;;;;;;-144.99;100.00;67352.69;5036929;28;20176;-87
2023/10/11 11:03:41;;;;;;;4.37;2.43;;;;;;;-144.99;100.00;67352.69;5037605;28;20201;-87
2023/10/11 11:06:11;;;;;;;2.03;1.43;;;;;;;-144.99;100.00;67352.69;5037227;28;20263;-87
2023/10/11 11:08:39;;;;;;;3.67;2.57;;;;;;;-144.99;100.00;67352.69;5035202;28;20190;-87
2023/10/11 11:11:27;;;;;;;7.63;2.83;;;;;;;-144.99;100.00;67352.69;5036589;28;20191;-87
2023/10/11 11:13:54;;;;;;;2.07;1.87;;;;;;;-144.99;100.00;67352.69;5038114;28;20808;-87
2023/10/11 11:16:29;;;;;;;2.30;1.60;;;;;;;-144.99;100.00;67352.69;5036497;28;20184;-88
2023/10/11 11:19:00;;;;;;;2.83;2.00;;;;;;;-144.99;100.00;67352.69;5035075;28;20181;-88
2023/10/11 11:21:29;;;;;;;2.97;1.60;;;;;;;-144.99;100.00;67352.69;5035091;28;20181;-87
2023/10/11 11:24:14;;;;;;;3.37;1.37;;;;;;;-144.99;100.00;67352.69;5035207;28;20206;-87
2023/10/11 11:26:40;;;;;;;3.07;1.87;;;;;;;-144.99;100.00;67352.69;5037234;28;20180;-87
2023/10/11 11:29:23;;;;;;;2.87;2.10;;;;;;;-144.99;100.00;67352.69;5039114;28;20251;-87
2023/10/11 11:31:52;;;;;;;8.37;2.47;;;;;;;-144.99;100.00;67352.69;5056932;28;20185;-89
2023/10/11 11:34:28;;;;;;;15.03;3.33;;;;;;;-144.99;100.00;67352.69;5057850;28;20211;-87
2023/10/11 11:36:58;;;;;;;6.07;1.57;;;;;;;-144.99;100.00;67352.69;5058479;28;20170;-88
2023/10/11 11:39:44;;;;;;;1.90;1.70;;;;;;;-144.99;100.00;67352.69;5052182;28;20181;-87
2023/10/11 11:42:24;;;;;;;2.63;2.37;;;;;;;-144.99;100.00;67352.69;5021819;28;20217;-86
2023/10/11 11:44:49;;;;;;;3.87;1.73;;;;;;;-144.99;100.00;67352.69;5042333;28;20281;-86
2023/10/11 11:47:21;;;;;;;5.63;1.87;;;;;;;-144.99;100.00;67352.69;5035781;28;20240;-86
2023/10/11 11:50:22;;;;;;;4.30;2.80;;;;;;;-144.99;100.00;67352.69;5039290;28;20221;-87
2023/10/11 11:52:47;;;;;;;2.80;2.20;;;;;;;-144.99;100.00;67352.69;5023862;28;20707;-85
2023/10/11 11:55:12;;;;;;;4.53;2.00;;;;;;;-144.99;100.00;67352.69;5035496;28;20171;-85
2023/10/11 11:57:38;;;;;;;1.67;1.57;;;;;;;-144.99;100.00;67352.69;5033685;28;20185;-85
2023/10/11 12:00:26;;;;;;;2.77;2.20;;;;;;;-144.99;100.00;67352.69;5037424;28;20821;-88
2023/10/11 12:02:52;;;;;;;6.63;2.30;;;;;;;-144.99;100.00;67352.69;5038027;28;20587;-88
2023/10/11 12:05:18;;;;;;;8.17;2.33;;;;;;;-144.99;100.00;67352.69;5034042;28;20653;-88
2023/10/11 12:07:43;;;;;;;5.47;1.97;;;;;;;-144.99;100.00;67352.69;5033161;28;20182;-86
2023/10/11 12:10:25;;;;;;;7.03;2.43;;;;;;;-144.99;100.00;67352.69;5038853;28;20189;-86
2023/10/11 12:12:54;;;;;;;9.87;2.53;;;;;;;-144.99;100.00;67352.69;5040192;28;20194;-86
2023/10/11 12:15:20;;;;;;;3.43;2.10;;;;;;;-144.99;100.00;67352.69;5039143;28;20187;-86
2023/10/11 12:17:47;;;;;;;19.20;2.03;;;;;;;-144.99;100.00;67352.69;5038624;28;20276;-86
2023/10/11 12:20:15;;;;;;;3.97;1.57;;;;;;;-144.99;100.00;67352.69;5039806;28;20186;-86
2023/10/11 12:22:43;;;;;;;2.47;1.40;;;;;;;-144.99;100.00;67352.69;5038527;28;20198;-86
2023/10/11 12:25:12;;;;;;;2.53;2.07;;;;;;;-144.99;100.00;67352.69;5038803;28;20650;-85
2023/10/11 12:27:41;;;;;;;9.03;1.90;;;;;;;-144.99;100.00;67352.69;5039125;28;20300;-88
2023/10/11 12:30:19;;;;;;;4.73;2.27;;;;;;;-144.99;100.00;67352.69;5039515;28;20182;-85